createdAt,value
2022-08-05T00:02:27.806Z,3.15
2022-08-05T00:04:56.262Z,3.15
2022-08-05T00:07:59.330Z,3.65
2022-08-05T00:10:10.824Z,3.67
2022-08-05T00:12:56.101Z,3.42
2022-08-05T00:15:54.969Z,3.60
2022-08-05T00:18:21.431Z,3.22
2022-08-05T00:20:50.025Z,3.20
2022-08-05T00:23:17.304Z,3.47
2022-08-05T00:26:04.700Z,3.40
2022-08-05T00:28:31.669Z,3.33
2022-08-05T00:31:04.101Z,3.55
2022-08-05T00:34:54.153Z,3.28
2022-08-05T00:37:13.257Z,3.08
2022-08-05T00:39:13.938Z,3.30
2022-08-05T00:41:52.116Z,3.10
2022-08-05T00:44:23.293Z,2.90
2022-08-05T00:47:02.150Z,3.22
2022-08-05T00:49:32.570Z,3.83
2022-08-05T00:52:00.415Z,3.40
2022-08-05T00:54:28.070Z,3.85
2022-08-05T00:59:23.980Z,3.28
2022-08-05T01:01:52.017Z,3.83
2022-08-05T01:04:20.302Z,3.33
2022-08-05T01:06:53.740Z,3.50
2022-08-05T01:09:22.307Z,3.65
2022-08-05T01:11:52.005Z,3.88
2022-08-05T01:14:41.545Z,3.95
2022-08-05T01:17:14.060Z,4.18
2022-08-05T01:20:01.378Z,3.83
2022-08-05T01:22:42.936Z,3.40
2022-08-05T01:25:40.457Z,3.65
2022-08-05T01:30:50.655Z,3.70
2022-08-05T01:33:26.201Z,3.78
2022-08-05T01:35:55.452Z,3.67
2022-08-05T01:38:29.915Z,3.50
2022-08-05T01:41:01.497Z,3.63
2022-08-05T01:43:29.678Z,3.80
2022-08-05T01:45:58.329Z,3.55
2022-08-05T01:48:36.385Z,3.17
2022-08-05T01:51:12.032Z,3.92
2022-08-05T01:53:57.230Z,3.20
2022-08-05T01:58:13.190Z,3.58
2022-08-05T01:59:19.792Z,3.05
2022-08-05T02:01:48.077Z,3.03
2022-08-05T02:04:18.204Z,3.75
2022-08-05T02:06:45.217Z,3.40
2022-08-05T02:09:12.224Z,3.40
2022-08-05T02:11:52.516Z,3.33
2022-08-05T02:14:31.949Z,3.20
2022-08-05T02:17:06.657Z,2.67
2022-08-05T02:19:42.718Z,2.67
2022-08-05T02:22:26.661Z,2.97
2022-08-05T02:25:03.430Z,3.70
2022-08-05T02:27:58.405Z,3.25
2022-08-05T02:30:21.594Z,2.97
2022-08-05T02:32:54.123Z,3.65
2022-08-05T02:35:28.295Z,3.08
2022-08-05T02:38:02.282Z,3.10
2022-08-05T02:40:30.037Z,3.38
2022-08-05T02:42:58.985Z,2.97
2022-08-05T02:45:28.546Z,3.50
2022-08-05T02:48:15.950Z,3.22
2022-08-05T02:50:47.393Z,3.45
2022-08-05T02:53:18.719Z,3.35
2022-08-05T02:55:54.093Z,3.03
2022-08-05T02:58:27.341Z,2.92
2022-08-05T03:00:56.536Z,3.15
2022-08-05T03:03:23.981Z,3.50
2022-08-05T03:06:55.283Z,3.22
2022-08-05T03:08:42.748Z,3.22
2022-08-05T03:11:54.611Z,3.08
2022-08-05T03:14:13.492Z,4.13
2022-08-05T03:16:41.423Z,3.10
2022-08-05T03:19:17.270Z,4.10
2022-08-05T03:21:55.755Z,3.25
2022-08-05T03:24:30.142Z,3.47
2022-08-05T03:26:59.325Z,3.20
2022-08-05T03:29:45.087Z,2.75
2022-08-05T03:32:14.398Z,3.42
2022-08-05T03:34:42.464Z,3.35
2022-08-05T03:37:22.759Z,3.40
2022-08-05T03:39:58.936Z,3.60
2022-08-05T03:42:29.059Z,3.88
2022-08-05T03:44:56.004Z,3.33
2022-08-05T03:47:24.603Z,3.60
2022-08-05T03:49:52.408Z,3.40
2022-08-05T03:52:37.822Z,3.10
2022-08-05T03:56:01.855Z,3.72
2022-08-05T04:00:51.493Z,3.33
2022-08-05T04:03:28.370Z,3.33
2022-08-05T04:05:57.915Z,3.60
2022-08-05T04:08:35.174Z,3.42
2022-08-05T04:11:04.875Z,3.58
2022-08-05T04:13:49.798Z,3.50
2022-08-05T04:16:25.168Z,3.33
2022-08-05T04:18:57.913Z,3.00
2022-08-05T04:22:10.359Z,3.33
2022-08-05T04:24:19.516Z,3.58
2022-08-05T04:26:50.072Z,3.40
2022-08-05T04:29:17.053Z,3.55
2022-08-05T04:31:43.817Z,3.30
2022-08-05T04:34:31.846Z,3.40
2022-08-05T04:36:58.285Z,3.22
2022-08-05T04:39:27.533Z,3.35
2022-08-05T04:41:55.436Z,3.35
2022-08-05T04:44:29.294Z,3.00
2022-08-05T04:47:08.878Z,3.20
2022-08-05T04:50:01.917Z,3.05
2022-08-05T04:52:23.163Z,2.90
2022-08-05T04:54:54.701Z,3.03
2022-08-05T04:57:29.303Z,2.70
2022-08-05T04:59:58.596Z,2.90
2022-08-05T05:02:41.589Z,3.00
2022-08-05T05:05:26.209Z,2.70
2022-08-05T05:08:02.113Z,2.80
2022-08-05T05:10:37.584Z,2.88
2022-08-05T05:13:04.667Z,3.53
2022-08-05T05:15:54.356Z,2.95
2022-08-05T05:18:31.451Z,2.95
2022-08-05T05:21:02.203Z,3.42
2022-08-05T05:23:39.213Z,2.80
2022-08-05T05:26:17.911Z,2.60
2022-08-05T05:28:45.034Z,2.90
2022-08-05T05:31:12.868Z,2.88
2022-08-05T05:33:57.045Z,2.72
2022-08-05T05:36:28.626Z,3.03
2022-08-05T05:38:57.265Z,3.13
2022-08-05T05:41:24.655Z,2.95
2022-08-05T05:43:57.478Z,3.22
2022-08-05T05:46:26.518Z,2.60
2022-08-05T05:48:53.644Z,2.65
2022-08-05T05:51:27.895Z,2.65
2022-08-05T05:53:58.942Z,2.75
2022-08-05T05:56:31.892Z,2.85
2022-08-05T05:59:03.467Z,2.67
2022-08-05T06:01:37.833Z,2.25
2022-08-05T06:04:12.162Z,2.20
2022-08-05T06:06:47.469Z,2.40
2022-08-05T06:09:16.674Z,2.33
2022-08-05T06:11:59.390Z,2.70
2022-08-05T06:14:29.352Z,2.50
2022-08-05T06:16:57.153Z,2.38
2022-08-05T06:19:32.897Z,2.05
2022-08-05T06:22:02.622Z,2.25
2022-08-05T06:24:30.178Z,2.28
2022-08-05T06:26:58.249Z,2.33
2022-08-05T06:29:49.048Z,2.28
2022-08-05T06:32:26.091Z,2.10
2022-08-05T06:34:57.369Z,2.30
2022-08-05T06:37:58.403Z,2.55
2022-08-05T06:40:21.229Z,2.10
2022-08-05T06:42:52.335Z,2.58
2022-08-05T06:45:44.885Z,2.28
2022-08-05T06:48:36.147Z,2.00
2022-08-05T06:50:55.421Z,2.10
2022-08-05T06:53:28.195Z,2.15
2022-08-05T06:55:57.102Z,2.70
2022-08-05T06:58:29.904Z,2.40
2022-08-05T07:01:02.813Z,2.17
2022-08-05T07:03:32.701Z,1.60
2022-08-05T07:06:05.811Z,1.05
2022-08-05T07:08:43.217Z,1.70
2022-08-05T07:11:15.895Z,1.15
2022-08-05T07:14:02.069Z,1.40
2022-08-05T07:18:02.208Z,1.20
2022-08-05T07:22:28.233Z,1.33
2022-08-05T07:25:23.091Z,1.20
2022-08-05T07:27:57.228Z,1.20
2022-08-05T07:30:33.675Z,1.45
2022-08-05T07:33:09.206Z,1.20
2022-08-05T07:36:01.750Z,1.40
2022-08-05T07:38:33.890Z,1.10
2022-08-05T07:42:13.564Z,1.15
2022-08-05T07:44:14.368Z,1.30
2022-08-05T07:46:48.246Z,1.15
2022-08-05T07:51:53.863Z,1.30
2022-08-05T07:54:31.699Z,1.08
2022-08-05T07:57:13.903Z,1.30
2022-08-05T07:59:51.858Z,1.23
2022-08-05T08:02:26.587Z,1.00
2022-08-05T08:04:58.016Z,1.23
2022-08-05T08:07:25.138Z,0.80
2022-08-05T08:09:55.589Z,1.20
2022-08-05T08:12:37.053Z,1.30
2022-08-05T08:15:09.696Z,1.10
2022-08-05T08:17:52.796Z,1.15
2022-08-05T08:20:45.403Z,1.13
2022-08-05T08:24:03.403Z,1.30
2022-08-05T08:26:02.465Z,1.30
2022-08-05T08:28:36.239Z,1.45
2022-08-05T08:31:09.694Z,0.90
2022-08-05T08:33:41.934Z,1.02
2022-08-05T08:36:38.198Z,0.93
2022-08-05T08:38:57.913Z,1.00
2022-08-05T08:41:52.459Z,0.95
2022-08-05T08:45:18.684Z,1.10
2022-08-05T08:47:46.782Z,0.63
2022-08-05T08:50:22.203Z,1.00
2022-08-05T08:52:47.395Z,1.00
2022-08-05T08:56:01.770Z,0.98
2022-08-05T08:58:06.767Z,1.00
2022-08-05T09:00:35.798Z,1.10
2022-08-05T09:03:05.835Z,1.08
2022-08-05T09:05:38.847Z,1.20
2022-08-05T09:08:26.685Z,1.00
2022-08-05T09:10:54.620Z,1.50
2022-08-05T09:13:21.649Z,1.10
2022-08-05T09:15:51.120Z,1.50
2022-08-05T09:18:18.249Z,1.00
2022-08-05T09:20:45.871Z,1.02
2022-08-05T09:23:21.964Z,1.00
2022-08-05T09:26:06.174Z,1.05
2022-08-05T09:28:35.271Z,0.93
2022-08-05T09:31:22.299Z,0.85
2022-08-05T09:34:02.614Z,1.10
2022-08-05T09:36:45.911Z,0.90
2022-08-05T09:39:24.490Z,0.90
2022-08-05T09:42:08.580Z,1.05
2022-08-05T09:44:42.984Z,1.15
2022-08-05T09:47:22.068Z,1.00
2022-08-05T09:50:01.123Z,1.13
2022-08-05T09:52:29.030Z,0.98
2022-08-05T09:55:55.654Z,0.82
2022-08-05T09:57:54.417Z,1.05
2022-08-05T10:00:25.995Z,0.98
2022-08-05T10:02:57.989Z,0.95
2022-08-05T10:05:27.851Z,1.05
2022-08-05T10:08:35.463Z,1.20
2022-08-05T10:10:55.855Z,1.20
2022-08-05T10:13:27.528Z,1.10
2022-08-05T10:16:41.655Z,0.85
2022-08-05T10:19:11.858Z,1.02
2022-08-05T10:21:40.937Z,1.00
2022-08-05T10:26:51.337Z,0.95
2022-08-05T10:29:23.430Z,1.10
2022-08-05T10:32:53.398Z,0.90
2022-08-05T10:35:00.993Z,0.70
2022-08-05T10:37:40.031Z,0.85
2022-08-05T10:40:33.240Z,0.70
2022-08-05T10:43:24.572Z,1.00
2022-08-05T10:46:08.480Z,0.73
2022-08-05T10:48:52.581Z,0.80
2022-08-05T10:51:28.790Z,0.95
2022-08-05T10:54:05.670Z,0.90
2022-08-05T10:56:45.536Z,0.98
2022-08-05T11:00:04.211Z,0.90
2022-08-05T11:02:14.803Z,0.88
2022-08-05T11:04:57.413Z,0.98
2022-08-05T11:07:32.959Z,0.98
2022-08-05T11:10:27.661Z,0.77
2022-08-05T11:12:57.504Z,0.80
2022-08-05T11:15:59.513Z,1.00
2022-08-05T11:18:32.595Z,1.50
2022-08-05T11:21:02.785Z,0.95
2022-08-05T11:24:04.618Z,0.85
2022-08-05T11:26:40.893Z,0.90
2022-08-05T11:29:42.613Z,1.00
2022-08-05T11:32:27.385Z,0.98
2022-08-05T11:34:55.270Z,1.33
2022-08-05T11:38:27.961Z,0.85
2022-08-05T11:41:13.874Z,0.90
2022-08-05T11:44:07.055Z,0.98
2022-08-05T11:47:09.509Z,0.82
2022-08-05T11:49:39.416Z,0.52
2022-08-05T11:52:11.353Z,0.80
2022-08-05T11:54:40.605Z,0.95
2022-08-05T11:57:25.364Z,1.10
2022-08-05T11:59:54.477Z,1.00
2022-08-05T12:02:31.275Z,0.90
2022-08-05T12:05:00.983Z,1.00
2022-08-05T12:08:08.694Z,1.25
2022-08-05T12:10:23.082Z,1.02
2022-08-05T12:12:59.287Z,1.20
2022-08-05T12:15:38.284Z,0.98
2022-08-05T12:18:10.515Z,1.48
2022-08-05T12:20:38.697Z,1.10
2022-08-05T12:23:12.457Z,1.02
2022-08-05T12:25:53.576Z,1.30
2022-08-05T12:28:33.745Z,1.23
2022-08-05T12:31:02.083Z,1.05
2022-08-05T12:33:36.545Z,0.90
2022-08-05T12:36:08.536Z,1.45
2022-08-05T12:38:40.367Z,1.13
2022-08-05T12:41:17.413Z,0.80
2022-08-05T12:43:57.873Z,0.93
2022-08-05T12:46:31.261Z,1.00
2022-08-05T12:49:15.372Z,1.00
2022-08-05T12:52:12.569Z,0.90
2022-08-05T12:54:41.303Z,1.50
2022-08-05T12:57:10.774Z,1.42
2022-08-05T13:01:58.235Z,0.95
2022-08-05T13:02:41.432Z,1.23
2022-08-05T13:05:12.635Z,1.20
2022-08-05T13:07:59.929Z,1.20
2022-08-05T13:10:31.082Z,1.55
2022-08-05T13:12:58.425Z,1.20
2022-08-05T13:15:35.887Z,1.25
2022-08-05T13:18:08.535Z,1.40
2022-08-05T13:20:35.852Z,1.50
2022-08-05T13:23:07.605Z,1.65
2022-08-05T13:25:51.855Z,1.20
2022-08-05T13:30:48.983Z,1.10
2022-08-05T13:34:23.605Z,1.15
2022-08-05T13:36:07.053Z,1.30
2022-08-05T13:41:11.504Z,0.73
2022-08-05T13:43:43.322Z,0.80
2022-08-05T13:46:11.679Z,0.73
2022-08-05T13:48:57.769Z,1.20
2022-08-05T13:51:29.606Z,0.82
2022-08-05T13:54:03.412Z,0.80
2022-08-05T13:56:38.991Z,0.63
2022-08-05T13:59:19.633Z,0.68
2022-08-05T14:01:57.737Z,0.63
2022-08-05T14:04:49.843Z,0.50
2022-08-05T14:07:25.604Z,0.88
2022-08-05T14:10:08.446Z,0.80
2022-08-05T14:12:36.062Z,0.98
2022-08-05T14:15:05.922Z,0.80
2022-08-05T14:17:50.567Z,0.75
2022-08-05T14:20:22.131Z,0.77
2022-08-05T14:22:54.777Z,1.05
2022-08-05T14:25:27.966Z,3.83
2022-08-05T14:27:55.675Z,1.00
2022-08-05T14:30:22.845Z,1.02
2022-08-05T14:32:53.622Z,5.80
2022-08-05T14:35:22.894Z,2.60
2022-08-05T14:40:24.190Z,1.08
2022-08-05T14:42:52.104Z,1.00
2022-08-05T14:45:19.387Z,1.40
2022-08-05T14:48:03.393Z,1.20
2022-08-05T14:50:33.299Z,1.30
2022-08-05T14:53:06.833Z,1.50
2022-08-05T14:55:39.154Z,0.90
2022-08-05T14:58:11.418Z,1.35
2022-08-05T15:00:58.274Z,1.35
2022-08-05T15:03:33.278Z,1.10
2022-08-05T15:06:06.859Z,1.23
2022-08-05T15:09:01.226Z,1.45
2022-08-05T15:11:23.569Z,1.10
2022-08-05T15:16:37.512Z,1.25
2022-08-05T15:19:14.591Z,1.27
2022-08-05T15:21:51.381Z,1.20
2022-08-05T15:24:18.595Z,1.60
2022-08-05T15:26:46.703Z,1.98
2022-08-05T15:29:15.378Z,1.48
2022-08-05T15:31:42.159Z,1.55
2022-08-05T15:34:31.381Z,1.23
2022-08-05T15:36:58.144Z,1.13
2022-08-05T15:41:00.019Z,1.30
2022-08-05T15:45:07.248Z,1.30
2022-08-05T15:47:40.579Z,1.00
2022-08-05T15:50:09.388Z,1.20
2022-08-05T15:52:52.782Z,1.10
2022-08-05T15:55:24.954Z,1.63
2022-08-05T15:58:08.699Z,1.20
2022-08-05T16:00:50.216Z,1.10
2022-08-05T16:03:22.857Z,1.20
2022-08-05T16:05:52.799Z,1.80
2022-08-05T16:08:22.871Z,1.50
2022-08-05T16:10:59.613Z,1.20
2022-08-05T16:13:34.382Z,1.52
2022-08-05T16:16:02.130Z,1.58
2022-08-05T16:18:32.936Z,1.48
2022-08-05T16:21:04.289Z,1.48
2022-08-05T16:23:54.578Z,1.65
2022-08-05T16:26:26.518Z,1.40
2022-08-05T16:28:54.571Z,1.10
2022-08-05T16:31:21.881Z,1.23
2022-08-05T16:33:49.469Z,1.65
2022-08-05T16:36:20.491Z,1.33
2022-08-05T16:38:54.952Z,1.38
2022-08-05T16:42:12.653Z,1.45
2022-08-05T16:44:16.570Z,1.95
2022-08-05T16:46:55.636Z,1.30
2022-08-05T16:49:23.672Z,1.20
2022-08-05T16:51:54.909Z,1.80
2022-08-05T16:54:30.254Z,1.58
2022-08-05T16:56:58.724Z,1.50
2022-08-05T16:59:27.796Z,1.38
2022-08-05T17:01:57.947Z,1.70
2022-08-05T17:04:27.947Z,1.23
2022-08-05T17:07:03.467Z,1.58
2022-08-05T17:09:57.855Z,1.38
2022-08-05T17:12:51.539Z,1.30
2022-08-05T17:15:19.239Z,1.40
2022-08-05T17:17:54.789Z,1.77
2022-08-05T17:20:22.558Z,1.80
2022-08-05T17:22:55.426Z,1.42
2022-08-05T17:25:39.221Z,1.40
2022-08-05T17:28:07.773Z,1.67
2022-08-05T17:30:50.610Z,1.40
2022-08-05T17:33:19.947Z,1.67
2022-08-05T17:36:09.042Z,1.48
2022-08-05T17:38:34.043Z,1.50
2022-08-05T17:41:02.275Z,1.40
2022-08-05T17:43:50.633Z,1.70
2022-08-05T17:46:18.325Z,1.50
2022-08-05T17:48:45.154Z,1.77
2022-08-05T17:51:14.499Z,1.60
2022-08-05T17:53:50.701Z,1.60
2022-08-05T17:56:22.825Z,1.20
2022-08-05T17:58:50.073Z,1.85
2022-08-05T18:01:18.512Z,1.40
2022-08-05T18:03:55.937Z,1.70
2022-08-05T18:06:29.364Z,1.60
2022-08-05T18:08:58.069Z,1.45
2022-08-05T18:11:33.622Z,1.70
2022-08-05T18:14:07.157Z,1.13
2022-08-05T18:16:46.822Z,1.73
2022-08-05T18:19:22.471Z,1.52
2022-08-05T18:22:08.308Z,1.77
2022-08-05T18:24:37.867Z,1.60
2022-08-05T18:27:18.152Z,1.63
2022-08-05T18:29:54.133Z,1.70
2022-08-05T18:32:28.170Z,1.77
2022-08-05T18:34:55.595Z,1.60
2022-08-05T18:37:34.381Z,1.60
2022-08-05T18:40:33.724Z,1.88
2022-08-05T18:42:58.837Z,1.60
2022-08-05T18:45:41.732Z,1.70
2022-08-05T18:48:11.366Z,1.70
2022-08-05T18:50:57.209Z,1.80
2022-08-05T18:53:50.241Z,1.33
2022-08-05T18:56:17.364Z,1.70
2022-08-05T18:58:54.791Z,1.77
2022-08-05T19:01:33.444Z,1.73
2022-08-05T19:04:14.722Z,1.65
2022-08-05T19:06:51.469Z,1.67
2022-08-05T19:09:21.116Z,1.27
2022-08-05T19:12:00.015Z,1.40
2022-08-05T19:14:52.176Z,1.60
2022-08-05T19:17:15.165Z,1.63
2022-08-05T19:19:47.046Z,1.65
2022-08-05T19:22:17.254Z,1.85
2022-08-05T19:25:00.542Z,1.60
2022-08-05T19:27:30.527Z,1.13
2022-08-05T19:29:57.733Z,1.88
2022-08-05T19:32:26.113Z,2.17
2022-08-05T19:34:57.960Z,1.73
2022-08-05T19:37:29.627Z,2.00
2022-08-05T19:40:02.477Z,2.00
2022-08-05T19:42:36.309Z,2.50
2022-08-05T19:45:07.031Z,2.20
2022-08-05T19:47:37.500Z,2.60
2022-08-05T19:50:07.563Z,2.00
2022-08-05T19:52:37.301Z,2.10
2022-08-05T19:55:06.842Z,2.20
2022-08-05T19:57:47.551Z,2.20
2022-08-05T20:00:22.874Z,2.10
2022-08-05T20:02:49.749Z,2.08
2022-08-05T20:05:24.360Z,2.15
2022-08-05T20:07:56.331Z,2.17
2022-08-05T20:10:26.211Z,2.00
2022-08-05T20:12:53.012Z,1.60
2022-08-05T20:15:48.516Z,1.67
2022-08-05T20:18:10.893Z,2.95
2022-08-05T20:20:56.740Z,1.85
2022-08-05T20:23:40.206Z,1.75
2022-08-05T20:26:15.437Z,1.98
2022-08-05T20:28:48.552Z,1.77
2022-08-05T20:31:16.505Z,1.83
2022-08-05T20:33:44.816Z,1.80
2022-08-05T20:36:12.335Z,1.80
2022-08-05T20:38:54.574Z,1.80
2022-08-05T20:41:27.378Z,2.08
2022-08-05T20:44:17.534Z,1.55
2022-08-05T20:46:48.823Z,2.28
2022-08-05T20:49:18.444Z,1.92
2022-08-05T20:51:53.384Z,2.17
2022-08-05T20:54:25.196Z,1.90
2022-08-05T20:56:52.974Z,1.88
2022-08-05T20:59:27.046Z,2.35
2022-08-05T21:02:07.489Z,1.92
2022-08-05T21:04:36.242Z,2.00
2022-08-05T21:07:04.860Z,1.92
2022-08-05T21:09:35.255Z,1.80
2022-08-05T21:12:10.128Z,2.05
2022-08-05T21:14:38.510Z,2.03
2022-08-05T21:17:06.051Z,1.95
2022-08-05T21:19:46.790Z,1.52
2022-08-05T21:22:21.760Z,1.50
2022-08-05T21:24:51.719Z,2.15
2022-08-05T21:27:25.209Z,2.03
2022-08-05T21:29:55.810Z,2.10
2022-08-05T21:32:27.704Z,2.17
2022-08-05T21:35:18.171Z,2.28
2022-08-05T21:37:52.683Z,2.40
2022-08-05T21:40:20.617Z,2.22
2022-08-05T21:42:47.611Z,1.92
2022-08-05T21:45:24.782Z,2.13
2022-08-05T21:47:56.671Z,2.25
2022-08-05T21:50:24.923Z,1.90
2022-08-05T21:52:52.212Z,2.08
2022-08-05T21:55:43.040Z,2.17
2022-08-05T21:58:07.154Z,2.67
2022-08-05T22:00:37.476Z,2.28
2022-08-05T22:03:07.252Z,2.50
2022-08-05T22:05:48.603Z,2.30
2022-08-05T22:08:21.977Z,2.30
2022-08-05T22:10:51.601Z,2.50
2022-08-05T22:14:19.895Z,2.60
2022-08-05T22:16:15.677Z,2.22
2022-08-05T22:18:54.218Z,2.35
2022-08-05T22:21:26.060Z,2.38
2022-08-05T22:24:13.024Z,2.13
2022-08-05T22:27:18.087Z,2.53
2022-08-05T22:29:44.817Z,2.50
2022-08-05T22:32:12.771Z,2.70
2022-08-05T22:34:44.383Z,2.25
2022-08-05T22:37:12.677Z,2.65
2022-08-05T22:39:39.588Z,2.45
2022-08-05T22:42:12.502Z,2.35
2022-08-05T22:44:53.575Z,2.20
2022-08-05T22:47:29.133Z,2.47
2022-08-05T22:50:19.733Z,2.22
2022-08-05T22:52:43.987Z,2.75
2022-08-05T22:55:19.257Z,2.30
2022-08-05T22:57:47.383Z,2.63
2022-08-05T23:00:18.475Z,2.60
2022-08-05T23:02:48.190Z,2.35
2022-08-05T23:05:15.907Z,2.75
2022-08-05T23:07:48.318Z,2.40
2022-08-05T23:10:19.496Z,2.67
2022-08-05T23:12:51.280Z,2.45
2022-08-05T23:15:21.380Z,1.75
2022-08-05T23:18:01.106Z,2.58
2022-08-05T23:20:30.236Z,2.60
2022-08-05T23:22:58.473Z,2.47
2022-08-05T23:25:51.862Z,3.35
2022-08-05T23:28:13.253Z,2.78
2022-08-05T23:30:53.597Z,2.53
2022-08-05T23:33:25.557Z,2.58
2022-08-05T23:35:56.034Z,2.60
2022-08-05T23:38:24.268Z,2.75
2022-08-05T23:40:52.654Z,2.95
2022-08-05T23:43:25.320Z,2.80
2022-08-05T23:46:21.163Z,2.55
2022-08-05T23:49:00.658Z,2.78
2022-08-05T23:51:53.364Z,3.08
2022-08-05T23:54:30.245Z,2.60
2022-08-05T23:57:04.922Z,2.65
